Time;durP1;ratioP1;P1;durP2;ratioP2;P2;SDS_P1;SDS_P2;PMS_P1;PMS_P2;Temp;Humidity;BMP_temperature;BMP_pressure;BME280_temperature;BME280_humidity;BME280_pressure;Samples;Min_cycle;Max_cycle;Signal;HPM_P1;HPM_P2
2022/07/20 00:02:21;;;;;;;10.43;5.70;;;;;;;19.89;55.04;99717.59;8394752;28;20408;-70
2022/07/20 00:06:22;;;;;;;11.30;5.22;;;;;;;19.90;55.09;99713.72;8395607;28;20082;-69
2022/07/20 00:14:42;;;;;;;14.00;5.82;;;;;;;19.92;54.88;99714.16;8385534;28;20170;-70
2022/07/20 00:18:43;;;;;;;12.48;6.53;;;;;;;19.90;54.72;99705.50;8393743;28;20530;-70
2022/07/20 00:22:44;;;;;;;13.00;6.47;;;;;;;19.93;54.77;99718.50;8393806;28;20198;-69
2022/07/20 00:26:45;;;;;;;8.82;5.43;;;;;;;19.90;55.03;99710.97;8390338;28;20415;-70
2022/07/20 00:30:46;;;;;;;14.88;5.75;;;;;;;19.87;55.13;99708.94;8395090;28;20060;-73
2022/07/20 00:34:47;;;;;;;11.38;6.05;;;;;;;19.83;55.33;99706.09;8401354;28;20036;-72
2022/07/20 00:38:48;;;;;;;12.43;5.65;;;;;;;19.86;54.91;99702.69;8401073;28;20127;-72
2022/07/20 00:42:49;;;;;;;12.95;5.70;;;;;;;19.89;54.73;99709.38;8398370;28;20550;-72
2022/07/20 00:46:53;;;;;;;13.82;5.85;;;;;;;19.89;54.72;99706.63;8400748;28;20094;-72
2022/07/20 00:50:54;;;;;;;12.43;5.78;;;;;;;19.89;54.83;99701.16;8400377;28;20087;-72
2022/07/20 00:54:55;;;;;;;9.57;4.90;;;;;;;19.85;55.02;99703.03;8400190;28;20072;-72
2022/07/20 00:58:56;;;;;;;17.85;5.85;;;;;;;19.81;55.05;99701.00;8386829;28;20052;-72
2022/07/20 01:02:57;;;;;;;12.27;5.63;;;;;;;19.79;54.89;99702.50;8400238;28;20614;-70
2022/07/20 01:06:58;;;;;;;14.68;5.97;;;;;;;19.79;54.97;99703.28;8381379;28;20060;-70
2022/07/20 01:11:00;;;;;;;8.95;5.30;;;;;;;19.78;55.17;99701.69;8399043;28;20437;-71
2022/07/20 01:15:01;;;;;;;13.15;5.90;;;;;;;19.72;55.52;99697.63;8383270;28;20423;-73
2022/07/20 01:19:03;;;;;;;16.83;5.47;;;;;;;19.68;55.36;99691.28;8399582;28;20086;-72
2022/07/20 01:23:04;;;;;;;11.02;5.22;;;;;;;19.67;55.56;99703.38;8413962;28;20053;-72
2022/07/20 01:27:05;;;;;;;11.82;5.78;;;;;;;19.66;55.32;99693.59;8399727;28;20539;-71
2022/07/20 01:31:06;;;;;;;9.38;5.18;;;;;;;19.66;55.12;99701.81;8392573;28;20044;-71
2022/07/20 01:35:07;;;;;;;11.45;5.40;;;;;;;19.62;54.90;99698.16;8388392;28;20059;-71
2022/07/20 01:39:09;;;;;;;9.43;5.50;;;;;;;19.57;55.20;99692.97;8398531;28;20048;-72
2022/07/20 01:43:09;;;;;;;10.82;5.07;;;;;;;19.47;55.94;99685.28;8400314;28;20136;-72
2022/07/20 01:47:10;;;;;;;10.80;5.10;;;;;;;19.38;56.18;99681.91;8397671;28;20051;-73
2022/07/20 01:51:11;;;;;;;9.85;5.40;;;;;;;19.31;56.32;99681.72;8398895;28;20166;-72
2022/07/20 01:55:12;;;;;;;13.13;5.35;;;;;;;19.27;56.64;99686.31;8396382;28;20049;-73
2022/07/20 01:59:13;;;;;;;7.57;5.18;;;;;;;19.23;56.61;99674.47;8398678;28;20171;-72
2022/07/20 02:03:14;;;;;;;19.52;5.38;;;;;;;19.22;56.61;99675.63;8398381;28;20040;-72
2022/07/20 02:07:15;;;;;;;10.02;5.68;;;;;;;19.23;56.34;99679.94;8398595;28;20052;-72
2022/07/20 02:11:16;;;;;;;11.18;5.65;;;;;;;19.21;56.49;99683.03;8397675;28;20036;-72
2022/07/20 02:19:37;;;;;;;14.25;5.45;;;;;;;19.17;56.52;99681.34;8398151;28;20041;-72
2022/07/20 02:23:39;;;;;;;12.88;5.60;;;;;;;19.15;56.36;99683.63;8397280;28;20064;-72
2022/07/20 02:27:40;;;;;;;11.23;5.50;;;;;;;19.15;56.29;99678.16;8382897;28;20480;-72
2022/07/20 02:31:40;;;;;;;8.52;5.22;;;;;;;19.13;56.35;99685.94;8394250;28;20135;-72
2022/07/20 02:35:41;;;;;;;7.35;5.50;;;;;;;19.09;56.37;99679.59;8397771;28;20048;-72
2022/07/20 02:39:42;;;;;;;17.25;5.22;;;;;;;19.07;56.20;99681.88;8397202;28;20086;-71
2022/07/20 02:43:43;;;;;;;16.92;5.35;;;;;;;19.03;56.58;99681.00;8396731;28;20052;-72
2022/07/20 02:47:45;;;;;;;9.88;4.60;;;;;;;18.95;56.70;99683.53;8397721;28;20135;-72
2022/07/20 02:51:46;;;;;;;10.55;5.65;;;;;;;18.91;56.69;99687.31;8396678;28;20131;-72
2022/07/20 02:55:47;;;;;;;10.45;5.30;;;;;;;18.90;56.56;99689.25;8396942;28;20412;-72
2022/07/20 02:59:48;;;;;;;15.15;5.28;;;;;;;18.97;56.57;99694.94;8377917;28;20044;-72
2022/07/20 03:03:49;;;;;;;16.98;4.80;;;;;;;19.03;56.05;99686.47;8396318;28;20519;-72
2022/07/20 03:07:50;;;;;;;8.18;4.28;;;;;;;19.05;56.10;99684.16;8386876;28;20055;-72
2022/07/20 03:11:51;;;;;;;13.43;5.13;;;;;;;19.06;56.17;99696.69;8389841;28;20422;-74
2022/07/20 03:15:52;;;;;;;10.82;4.80;;;;;;;18.99;56.46;99691.81;8396060;28;20048;-72
2022/07/20 03:19:53;;;;;;;9.30;4.70;;;;;;;18.92;56.55;99681.50;8395826;28;20143;-72
2022/07/20 03:23:55;;;;;;;9.02;5.13;;;;;;;18.86;56.65;99682.91;8407896;28;20521;-72
2022/07/20 03:27:57;;;;;;;12.93;5.05;;;;;;;18.86;56.92;99682.91;8394534;28;20041;-71
2022/07/20 03:31:58;;;;;;;11.50;5.10;;;;;;;18.83;57.00;99689.06;8391543;28;20431;-72
2022/07/20 03:35:59;;;;;;;12.23;4.78;;;;;;;18.82;57.01;99681.97;8395021;28;20051;-73
2022/07/20 03:40:01;;;;;;;12.50;4.88;;;;;;;18.84;57.20;99687.91;8359540;28;20529;-72
2022/07/20 03:44:02;;;;;;;16.50;5.45;;;;;;;18.85;57.17;99692.25;8394716;28;20048;-72
2022/07/20 03:48:03;;;;;;;21.52;5.20;;;;;;;18.89;57.38;99704.06;8395211;28;20076;-73
2022/07/20 03:52:05;;;;;;;10.85;5.07;;;;;;;18.88;58.09;99702.47;8394441;28;20132;-73
2022/07/20 03:56:08;;;;;;;13.65;5.07;;;;;;;18.89;58.07;99717.75;8397136;28;20063;-73
2022/07/20 04:00:10;;;;;;;10.30;5.32;;;;;;;18.96;58.12;99708.97;8401919;28;20127;-73
2022/07/20 04:04:11;;;;;;;11.40;5.22;;;;;;;18.99;58.55;99709.03;8400098;28;20051;-72
2022/07/20 04:08:12;;;;;;;10.77;5.00;;;;;;;19.02;59.02;99706.75;8400141;28;20053;-73
2022/07/20 04:12:21;;;;;;;11.43;4.82;;;;;;;19.04;58.75;99716.19;8401837;28;20050;-72
2022/07/20 04:16:22;;;;;;;14.30;5.30;;;;;;;19.11;58.67;99710.13;8401861;28;20456;-72
2022/07/20 04:20:23;;;;;;;12.77;4.88;;;;;;;19.23;58.92;99707.34;8416224;28;20392;-73
2022/07/20 04:24:25;;;;;;;11.20;4.43;;;;;;;19.34;58.69;99713.88;8401470;28;20051;-72
2022/07/20 04:28:26;;;;;;;8.32;4.70;;;;;;;19.45;58.53;99715.00;8399562;28;20064;-72
2022/07/20 04:32:27;;;;;;;12.20;4.80;;;;;;;19.57;58.49;99717.63;8401688;28;20056;-73
2022/07/20 04:36:28;;;;;;;10.95;4.85;;;;;;;19.68;58.23;99718.69;8401235;28;20126;-72
2022/07/20 04:40:29;;;;;;;11.10;5.03;;;;;;;19.78;57.97;99715.41;8401310;28;20048;-74
2022/07/20 04:44:30;;;;;;;14.98;5.20;;;;;;;19.88;57.54;99721.50;8387242;28;20051;-72
2022/07/20 04:48:31;;;;;;;9.90;4.70;;;;;;;19.98;57.46;99720.97;8401068;28;20044;-73
2022/07/20 04:52:33;;;;;;;15.00;4.90;;;;;;;20.07;57.30;99724.31;8399970;28;20040;-72
2022/07/20 04:56:33;;;;;;;16.73;5.13;;;;;;;20.17;57.10;99723.75;8386517;28;20063;-72
2022/07/20 05:00:35;;;;;;;7.47;4.82;;;;;;;20.26;56.78;99732.56;8400688;28;20056;-72
2022/07/20 05:04:35;;;;;;;9.52;4.55;;;;;;;20.34;56.33;99734.34;8400386;28;20056;-72
2022/07/20 05:08:37;;;;;;;14.73;4.82;;;;;;;20.42;56.10;99736.09;8400285;28;20048;-73
2022/07/20 05:12:41;;;;;;;6.72;4.18;;;;;;;20.49;55.84;99741.75;8396872;28;20120;-74
2022/07/20 05:16:43;;;;;;;10.15;4.85;;;;;;;20.57;55.64;99743.47;8371963;28;20047;-72
2022/07/20 05:20:43;;;;;;;12.10;5.10;;;;;;;20.64;55.62;99743.63;8367273;28;20499;-72
2022/07/20 05:24:45;;;;;;;8.93;5.10;;;;;;;20.71;55.62;99743.00;8385356;28;20571;-72
2022/07/20 05:28:45;;;;;;;24.38;5.50;;;;;;;20.81;55.74;99741.63;8396119;28;20049;-73
2022/07/20 05:32:46;;;;;;;10.50;5.28;;;;;;;20.90;55.82;99739.44;8393808;28;20052;-74
2022/07/20 05:36:47;;;;;;;14.25;5.20;;;;;;;20.98;56.21;99746.69;8390784;28;20045;-73
2022/07/20 05:40:48;;;;;;;12.25;5.43;;;;;;;21.05;55.85;99741.31;8398869;28;20052;-73
2022/07/20 05:44:49;;;;;;;11.57;5.35;;;;;;;21.13;55.91;99732.06;8368028;28;20154;-72
2022/07/20 05:48:50;;;;;;;10.82;5.15;;;;;;;21.20;56.42;99743.22;8372049;28;20086;-72
2022/07/20 05:52:51;;;;;;;13.20;5.68;;;;;;;21.31;55.95;99749.69;8397321;28;20374;-72
2022/07/20 05:56:52;;;;;;;14.32;5.40;;;;;;;21.42;56.11;99745.16;8368528;28;20496;-72
2022/07/20 06:00:53;;;;;;;12.18;4.82;;;;;;;21.52;56.16;99740.25;8400558;28;20044;-72
2022/07/20 06:04:54;;;;;;;11.15;5.47;;;;;;;21.60;56.24;99744.69;8367236;28;20052;-72
2022/07/20 06:08:55;;;;;;;12.77;5.38;;;;;;;21.68;55.94;99746.41;8364397;28;20473;-72
2022/07/20 06:12:57;;;;;;;10.35;5.10;;;;;;;21.76;56.26;99753.63;8375025;28;20136;-73
2022/07/20 06:16:58;;;;;;;12.60;4.63;;;;;;;21.87;55.45;99760.09;8381573;28;20463;-73
2022/07/20 06:20:59;;;;;;;12.43;5.22;;;;;;;22.01;54.82;99765.84;8388199;28;20397;-72
2022/07/20 06:25:00;;;;;;;10.52;5.07;;;;;;;22.12;55.28;99764.03;8374151;28;20057;-72
2022/07/20 06:29:01;;;;;;;9.25;5.10;;;;;;;22.22;55.34;99771.66;8379587;28;20053;-72
2022/07/20 06:33:02;;;;;;;8.93;5.43;;;;;;;22.38;55.28;99773.47;8373082;28;20134;-72
2022/07/20 06:37:03;;;;;;;11.13;5.28;;;;;;;22.51;55.25;99772.09;8388901;28;20098;-73
2022/07/20 06:41:04;;;;;;;15.15;5.70;;;;;;;22.64;55.33;99781.69;8380333;28;20133;-72
2022/07/20 06:45:06;;;;;;;11.85;5.05;;;;;;;22.79;55.10;99777.97;8393299;28;20127;-73
2022/07/20 06:49:08;;;;;;;12.18;5.55;;;;;;;22.94;54.76;99778.97;8396235;28;20447;-73
2022/07/20 06:53:09;;;;;;;15.68;5.40;;;;;;;23.02;54.88;99775.91;8396089;28;20048;-74
2022/07/20 06:57:10;;;;;;;12.73;5.25;;;;;;;23.13;54.44;99782.34;8392395;28;20097;-74
2022/07/20 07:01:11;;;;;;;8.80;4.95;;;;;;;23.28;53.97;99782.50;8395844;28;20036;-74
2022/07/20 07:05:12;;;;;;;16.02;4.97;;;;;;;23.39;53.60;99783.41;8392516;28;20033;-73
2022/07/20 07:09:13;;;;;;;11.30;5.07;;;;;;;23.56;53.36;99782.84;8387961;28;20071;-73
2022/07/20 07:13:14;;;;;;;10.52;5.07;;;;;;;23.68;53.17;99779.81;8381845;28;20064;-72
2022/07/20 07:17:16;;;;;;;10.20;5.00;;;;;;;23.85;52.79;99783.88;8395339;28;20052;-72
2022/07/20 07:21:17;;;;;;;22.55;5.10;;;;;;;24.03;52.41;99784.03;8395353;28;20044;-73
2022/07/20 07:25:19;;;;;;;13.95;5.45;;;;;;;24.19;52.49;99788.13;8381277;28;20110;-72
2022/07/20 07:29:20;;;;;;;10.65;4.97;;;;;;;24.30;51.96;99782.69;8395305;28;20044;-73
2022/07/20 07:33:25;;;;;;;15.52;4.97;;;;;;;24.44;51.65;99793.81;8387196;28;20054;-73
2022/07/20 07:37:26;;;;;;;15.55;4.50;;;;;;;24.61;51.07;99798.66;8393856;28;20049;-73
2022/07/20 07:41:27;;;;;;;9.02;4.90;;;;;;;24.79;50.64;99793.25;8374869;28;20060;-73
2022/07/20 07:45:28;;;;;;;13.73;4.40;;;;;;;24.93;50.26;99795.28;8397296;28;20041;-70
2022/07/20 07:49:29;;;;;;;14.75;4.60;;;;;;;25.07;50.57;99787.06;8395085;28;20462;-72
2022/07/20 07:53:30;;;;;;;17.02;4.70;;;;;;;25.22;50.50;99783.19;8380848;28;20044;-72
2022/07/20 07:57:31;;;;;;;14.88;4.50;;;;;;;25.40;49.47;99795.06;8394668;28;20061;-72
2022/07/20 08:01:34;;;;;;;12.80;4.22;;;;;;;25.57;48.90;99794.34;8381883;28;20049;-72
2022/07/20 08:05:35;;;;;;;8.73;4.25;;;;;;;25.72;47.78;99783.28;8364135;28;20435;-73
2022/07/20 08:09:36;;;;;;;11.30;4.28;;;;;;;25.92;46.79;99787.25;8395115;28;20070;-73
2022/07/20 08:13:37;;;;;;;15.50;4.35;;;;;;;26.17;44.54;99793.59;8394739;28;20040;-72
2022/07/20 08:17:38;;;;;;;8.45;4.35;;;;;;;26.28;44.82;99788.84;8392641;28;20450;-72
2022/07/20 08:21:39;;;;;;;9.77;4.32;;;;;;;26.46;43.06;99789.63;8393060;28;20059;-69
2022/07/20 08:25:42;;;;;;;12.77;4.75;;;;;;;26.62;42.81;99797.50;8394891;28;20087;-71
2022/07/20 08:29:43;;;;;;;9.15;4.20;;;;;;;26.83;43.04;99796.63;8385320;28;20044;-74
2022/07/20 08:33:44;;;;;;;14.45;4.70;;;;;;;26.99;42.63;99794.22;8394714;28;20106;-73
2022/07/20 08:37:45;;;;;;;6.78;4.32;;;;;;;27.25;41.17;99796.47;8380275;28;20036;-73
2022/07/20 08:41:46;;;;;;;7.43;4.03;;;;;;;27.40;41.02;99796.38;8409969;28;20044;-73
2022/07/20 08:45:48;;;;;;;11.88;4.70;;;;;;;27.60;40.27;99795.50;8384646;28;20103;-72
2022/07/20 08:49:50;;;;;;;12.82;4.30;;;;;;;27.82;39.71;99790.59;8398967;28;20553;-73
2022/07/20 08:53:51;;;;;;;8.80;4.22;;;;;;;28.01;39.15;99792.81;8384189;28;20127;-73
2022/07/20 08:57:55;;;;;;;7.50;4.10;;;;;;;28.21;38.52;99789.50;8400504;28;20053;-70
2022/07/20 09:02:01;;;;;;;8.55;3.80;;;;;;;28.33;38.21;99791.78;8397565;28;20106;-72
2022/07/20 09:06:06;;;;;;;17.45;4.60;;;;;;;28.56;37.08;99778.81;8391591;28;20052;-72
2022/07/20 09:10:13;;;;;;;8.90;4.50;;;;;;;28.76;36.45;99781.81;8394993;28;20098;-73
2022/07/20 09:14:16;;;;;;;12.48;4.25;;;;;;;28.89;36.43;99780.06;8399392;28;20059;-71
2022/07/20 09:18:27;;;;;;;11.15;4.22;;;;;;;29.02;36.50;99782.31;8384384;28;20517;-72
2022/07/20 09:22:35;;;;;;;9.50;3.90;;;;;;;29.23;36.47;99776.47;8398977;28;20488;-70
2022/07/20 09:26:37;;;;;;;11.85;4.32;;;;;;;29.36;35.71;99780.25;8398821;28;20052;-71
2022/07/20 09:30:54;;;;;;;8.13;3.63;;;;;;;29.44;35.37;99776.19;8399454;28;20052;-71
2022/07/20 09:35:02;;;;;;;8.13;3.83;;;;;;;29.52;34.87;99772.06;8398940;28;20052;-71
2022/07/20 09:39:08;;;;;;;9.50;3.67;;;;;;;29.67;34.79;99789.34;8396405;28;20056;-72
2022/07/20 09:43:36;;;;;;;8.27;3.38;;;;;;;29.80;34.29;99777.22;8398583;28;20041;-72
2022/07/20 09:47:37;;;;;;;7.30;3.75;;;;;;;29.97;33.84;99774.59;8393629;28;20139;-72
2022/07/20 09:51:43;;;;;;;7.05;3.60;;;;;;;30.04;33.80;99771.66;8425541;28;20052;-71
2022/07/20 09:55:44;;;;;;;10.05;3.60;;;;;;;30.17;33.77;99772.66;8409254;28;20059;-72
2022/07/20 09:59:50;;;;;;;11.10;3.30;;;;;;;30.33;33.79;99774.75;8386125;28;20044;-72
2022/07/20 10:03:53;;;;;;;10.07;3.47;;;;;;;30.49;33.81;99767.31;8411087;28;20044;-73
2022/07/20 10:07:55;;;;;;;5.93;3.33;;;;;;;30.57;32.64;99752.00;8397196;28;20534;-73
2022/07/20 10:11:56;;;;;;;16.00;3.75;;;;;;;30.63;33.33;99761.44;8422253;28;20098;-72
2022/07/20 10:16:29;;;;;;;9.57;3.35;;;;;;;30.73;31.56;99747.72;8387147;28;20048;-71
2022/07/20 10:20:35;;;;;;;6.80;3.17;;;;;;;30.86;31.63;99751.44;8359960;28;20041;-71
2022/07/20 10:24:38;;;;;;;12.00;3.03;;;;;;;30.99;31.39;99755.13;8361595;28;20143;-74
2022/07/20 10:28:40;;;;;;;9.77;3.10;;;;;;;31.13;31.73;99760.44;8376063;28;20063;-71
2022/07/20 10:32:51;;;;;;;8.80;3.80;;;;;;;31.20;31.56;99760.28;8349024;28;20045;-72
2022/07/20 10:37:20;;;;;;;9.45;3.65;;;;;;;31.25;31.99;99751.38;8352472;28;20175;-72
2022/07/20 10:41:36;;;;;;;11.02;3.40;;;;;;;31.37;31.57;99747.16;8374631;28;20049;-73
2022/07/20 10:45:37;;;;;;;11.10;3.60;;;;;;;31.43;31.82;99740.63;8381740;28;20044;-72
2022/07/20 10:49:58;;;;;;;8.23;4.05;;;;;;;31.58;31.83;99743.09;8377020;28;20048;-71
2022/07/20 10:54:31;;;;;;;14.13;3.47;;;;;;;31.74;31.95;99748.69;8386074;28;20070;-72
2022/07/20 10:58:36;;;;;;;8.45;3.70;;;;;;;31.92;30.32;99743.44;8387230;28;20385;-71
2022/07/20 11:02:37;;;;;;;9.13;4.13;;;;;;;32.02;29.35;99736.81;8395681;28;20048;-71
2022/07/20 11:06:40;;;;;;;7.07;3.78;;;;;;;32.09;29.33;99736.63;8376249;28;20067;-73
2022/07/20 11:10:42;;;;;;;7.43;3.80;;;;;;;32.19;29.13;99741.16;8385338;28;20065;-71
2022/07/20 11:14:53;;;;;;;11.43;4.10;;;;;;;32.28;29.21;99732.94;8386495;28;20083;-72
2022/07/20 11:18:55;;;;;;;7.32;4.03;;;;;;;32.39;28.53;99729.06;8383593;28;20040;-71
2022/07/20 11:22:57;;;;;;;8.80;4.20;;;;;;;32.48;27.76;99734.78;8379159;28;20126;-71
2022/07/20 11:27:13;;;;;;;15.93;3.90;;;;;;;32.57;28.06;99732.16;8382866;28;20404;-72
2022/07/20 11:31:15;;;;;;;8.60;4.00;;;;;;;32.61;28.62;99727.25;8369552;28;20048;-73
2022/07/20 11:35:16;;;;;;;13.27;3.75;;;;;;;32.65;28.12;99722.34;8372780;28;20514;-71
2022/07/20 11:39:17;;;;;;;8.15;3.47;;;;;;;32.76;27.43;99720.03;8378562;28;20053;-73
2022/07/20 11:43:19;;;;;;;13.23;4.13;;;;;;;32.80;26.94;99723.50;8379781;28;20044;-72
2022/07/20 11:47:20;;;;;;;12.88;3.83;;;;;;;32.96;28.17;99726.22;8386767;28;20487;-72
2022/07/20 11:51:21;;;;;;;12.95;3.72;;;;;;;33.09;27.70;99715.84;8389508;28;20059;-72
2022/07/20 11:55:37;;;;;;;9.77;4.10;;;;;;;33.25;28.08;99725.38;8390141;28;20052;-74
2022/07/20 11:59:45;;;;;;;8.15;3.90;;;;;;;33.31;28.19;99720.81;8395389;28;20052;-72
2022/07/20 12:03:51;;;;;;;11.48;3.80;;;;;;;33.41;28.21;99705.69;8394956;28;20079;-72
2022/07/20 12:08:07;;;;;;;7.28;3.92;;;;;;;33.54;28.24;99698.03;8392026;28;20123;-72
2022/07/20 12:12:44;;;;;;;13.00;4.10;;;;;;;33.67;28.44;99707.22;8379434;28;20041;-72
2022/07/20 12:16:40;;;;;;;14.23;4.43;;;;;;;33.68;27.72;99703.22;8393614;28;20581;-72
2022/07/20 12:20:57;;;;;;;15.27;4.85;;;;;;;33.75;27.01;99697.34;8387795;28;20124;-72
2022/07/20 12:25:01;;;;;;;8.50;4.00;;;;;;;33.78;26.62;99690.88;8400912;28;20061;-72
2022/07/20 12:29:21;;;;;;;13.88;4.20;;;;;;;33.80;26.86;99693.19;8399568;28;20091;-72
2022/07/20 12:33:21;;;;;;;8.35;4.25;;;;;;;33.88;26.98;99695.31;8398023;28;20589;-73
2022/07/20 12:37:23;;;;;;;11.68;4.40;;;;;;;33.89;25.13;99696.84;8401005;28;20128;-72
2022/07/20 12:41:24;;;;;;;11.18;4.57;;;;;;;33.89;25.51;99691.25;8394035;28;20049;-72
2022/07/20 12:45:25;;;;;;;8.60;4.07;;;;;;;34.11;27.02;99690.50;8393859;28;20058;-74
2022/07/20 12:49:29;;;;;;;7.80;4.53;;;;;;;34.14;26.06;99689.63;8399207;28;20147;-72
2022/07/20 12:53:30;;;;;;;11.02;4.05;;;;;;;34.20;26.33;99693.44;8396551;28;20056;-73
2022/07/20 12:57:31;;;;;;;9.45;4.70;;;;;;;34.33;26.26;99685.72;8363161;28;20565;-71
2022/07/20 13:01:32;;;;;;;16.00;4.72;;;;;;;34.44;25.35;99680.53;8344418;28;20045;-72
2022/07/20 13:05:33;;;;;;;10.00;4.13;;;;;;;34.34;23.84;99684.50;8364383;28;20044;-71
2022/07/20 13:09:34;;;;;;;11.52;4.68;;;;;;;34.17;24.57;99678.25;8363671;28;20044;-73
2022/07/20 13:13:35;;;;;;;15.82;4.78;;;;;;;34.18;25.21;99673.44;8345206;28;20068;-72
2022/07/20 13:17:36;;;;;;;12.30;4.25;;;;;;;34.30;26.11;99664.22;8335716;28;20180;-72
2022/07/20 13:21:38;;;;;;;8.07;4.20;;;;;;;34.40;25.68;99662.28;8382739;28;20040;-72
2022/07/20 13:25:40;;;;;;;8.57;4.45;;;;;;;34.51;26.38;99663.44;8393491;28;20067;-71
2022/07/20 13:29:41;;;;;;;5.75;3.65;;;;;;;34.49;26.08;99649.09;8384009;28;20045;-72
2022/07/20 13:33:42;;;;;;;15.35;4.72;;;;;;;34.57;25.89;99656.00;8384551;28;20037;-72
2022/07/20 13:37:43;;;;;;;9.55;4.53;;;;;;;34.70;25.73;99653.91;8384712;28;20041;-73
2022/07/20 13:41:46;;;;;;;15.05;4.50;;;;;;;36.10;24.79;99644.94;8382602;28;20048;-73
2022/07/20 13:45:47;;;;;;;9.38;4.53;;;;;;;37.51;23.20;99647.97;8384228;28;20095;-73
2022/07/20 13:49:48;;;;;;;8.82;4.13;;;;;;;38.51;21.82;99652.81;8386876;28;20134;-72
2022/07/20 13:53:49;;;;;;;6.18;4.32;;;;;;;39.53;19.91;99637.78;8386958;28;20048;-72
2022/07/20 13:57:50;;;;;;;8.55;4.03;;;;;;;39.44;20.57;99645.59;8394801;28;20458;-74
2022/07/20 14:01:51;;;;;;;11.52;4.07;;;;;;;40.51;20.47;99643.50;8396185;28;20106;-72
2022/07/20 14:05:52;;;;;;;9.93;4.75;;;;;;;41.82;19.76;99642.63;8396166;28;20552;-72
2022/07/20 14:09:53;;;;;;;12.52;4.63;;;;;;;42.29;17.76;99646.66;8383632;28;20048;-73
2022/07/20 14:13:54;;;;;;;6.40;3.90;;;;;;;43.06;17.04;99645.13;8386214;28;20136;-72
2022/07/20 14:17:55;;;;;;;10.45;4.00;;;;;;;43.64;17.06;99655.38;8373127;28;20491;-73
2022/07/20 14:21:56;;;;;;;13.20;4.45;;;;;;;43.95;17.13;99639.19;8407516;28;20458;-73
2022/07/20 14:25:57;;;;;;;10.23;3.97;;;;;;;44.34;16.72;99642.63;8394254;28;20044;-73
2022/07/20 14:30:01;;;;;;;11.82;4.40;;;;;;;44.70;16.78;99639.75;8368733;28;20056;-70
2022/07/20 14:34:02;;;;;;;8.02;3.90;;;;;;;44.70;16.96;99636.91;8395716;28;20040;-73
2022/07/20 14:38:05;;;;;;;8.07;3.92;;;;;;;43.31;16.91;99629.84;8390447;28;20036;-70
2022/07/20 14:42:06;;;;;;;8.90;4.20;;;;;;;43.36;17.48;99614.88;8384072;28;20492;-72
2022/07/20 14:46:07;;;;;;;18.33;4.65;;;;;;;43.65;17.05;99616.31;8382937;28;20459;-70
2022/07/20 14:50:08;;;;;;;9.13;3.90;;;;;;;44.64;16.84;99601.97;8389842;28;20063;-72
2022/07/20 14:54:10;;;;;;;7.57;3.88;;;;;;;45.49;15.90;99601.41;8389910;28;20033;-70
2022/07/20 14:58:10;;;;;;;6.97;3.90;;;;;;;45.69;15.65;99598.00;8384231;28;20047;-73
2022/07/20 15:02:12;;;;;;;6.60;3.85;;;;;;;46.20;14.69;99595.25;8378569;28;20041;-73
2022/07/20 15:06:16;;;;;;;7.43;4.25;;;;;;;46.62;13.63;99604.97;8378305;28;20044;-73
2022/07/20 15:10:17;;;;;;;10.55;4.75;;;;;;;46.36;14.68;99596.31;8392109;28;20040;-71
2022/07/20 15:14:18;;;;;;;11.45;4.70;;;;;;;46.61;15.33;99606.28;8388506;28;20122;-73
2022/07/20 15:18:19;;;;;;;9.50;4.35;;;;;;;46.92;14.46;99596.91;8375162;28;20041;-70
2022/07/20 15:22:22;;;;;;;8.68;4.45;;;;;;;47.12;14.74;99597.59;8377207;28;20483;-73
2022/07/20 15:26:23;;;;;;;5.57;3.95;;;;;;;47.43;14.53;99599.59;8378305;28;20126;-74
2022/07/20 15:30:24;;;;;;;6.07;4.00;;;;;;;47.67;14.03;99595.69;8389585;28;20051;-71
2022/07/20 15:34:27;;;;;;;5.95;4.20;;;;;;;47.40;14.38;99606.38;8373665;28;20062;-72
2022/07/20 15:51:59;;;;;;;9.10;4.10;;;;;;;41.16;18.24;99576.59;8413647;27;1466383;-73
2022/07/20 15:56:02;;;;;;;9.93;4.63;;;;;;;40.10;19.50;99572.13;8393071;28;20044;-73
2022/07/20 16:00:06;;;;;;;8.05;4.10;;;;;;;39.41;20.75;99573.09;8446720;28;20036;-73
2022/07/20 16:04:07;;;;;;;12.02;4.50;;;;;;;38.68;20.91;99563.56;8430792;28;20410;-72
2022/07/20 16:08:08;;;;;;;12.60;4.72;;;;;;;38.08;22.00;99560.47;8444677;28;20047;-74
2022/07/20 16:12:10;;;;;;;29.50;5.43;;;;;;;37.86;22.30;99555.94;8443592;28;20106;-73
2022/07/20 16:16:11;;;;;;;6.38;4.13;;;;;;;37.37;22.69;99558.53;8442622;28;20051;-72
2022/07/20 16:20:12;;;;;;;10.50;4.22;;;;;;;37.19;22.73;99560.22;8443599;28;20051;-74
2022/07/20 16:24:13;;;;;;;10.30;4.60;;;;;;;37.29;22.55;99557.34;8449912;28;20048;-71
2022/07/20 16:28:16;;;;;;;10.23;4.63;;;;;;;36.84;23.08;99561.19;8443357;28;20040;-72
2022/07/20 16:32:17;;;;;;;14.77;5.00;;;;;;;36.48;23.18;99550.84;8451487;28;20036;-72
2022/07/20 16:36:19;;;;;;;12.65;4.88;;;;;;;36.09;23.38;99553.41;8451158;28;20068;-72
2022/07/20 16:40:20;;;;;;;13.02;4.80;;;;;;;35.73;24.44;99559.09;8421328;28;20054;-73
2022/07/20 16:44:21;;;;;;;7.82;4.53;;;;;;;35.54;24.38;99558.25;8441415;28;20448;-73
2022/07/20 16:48:21;;;;;;;6.85;4.60;;;;;;;35.18;24.75;99559.00;8428258;28;20056;-73
2022/07/20 16:52:22;;;;;;;7.43;4.47;;;;;;;34.97;24.87;99559.88;8418497;28;20049;-73
2022/07/20 16:56:24;;;;;;;9.18;4.65;;;;;;;34.71;25.20;99548.88;8378115;28;20080;-73
2022/07/20 17:00:25;;;;;;;12.55;4.40;;;;;;;34.50;25.58;99546.88;8420288;28;20139;-73
2022/07/20 17:04:26;;;;;;;12.02;4.93;;;;;;;34.23;26.09;99541.94;8426263;28;20055;-73
2022/07/20 17:08:27;;;;;;;18.48;4.80;;;;;;;33.99;26.64;99537.25;8418063;28;20089;-73
2022/07/20 17:12:27;;;;;;;8.15;4.60;;;;;;;33.76;26.62;99536.44;8425648;28;20959;-72
2022/07/20 17:16:29;;;;;;;9.95;5.13;;;;;;;33.59;27.05;99532.25;8418889;28;20051;-72
2022/07/20 17:20:30;;;;;;;14.15;5.18;;;;;;;33.39;27.86;99528.97;8417974;28;20047;-72
2022/07/20 17:24:33;;;;;;;16.45;5.47;;;;;;;33.08;28.33;99526.78;8411573;28;20052;-72
2022/07/20 17:28:34;;;;;;;7.32;4.65;;;;;;;32.84;28.66;99517.19;8423927;28;20058;-73
2022/07/20 17:32:36;;;;;;;9.32;4.93;;;;;;;32.57;29.26;99525.25;8379454;28;20048;-73
2022/07/20 17:36:37;;;;;;;8.73;5.15;;;;;;;32.42;29.22;99527.69;8413034;28;20410;-73
2022/07/20 17:40:38;;;;;;;17.02;4.90;;;;;;;32.23;29.27;99529.47;8391822;28;20475;-71
2022/07/20 17:44:39;;;;;;;11.02;5.00;;;;;;;32.03;29.97;99528.84;8389816;28;20048;-72
2022/07/20 17:48:40;;;;;;;12.25;5.25;;;;;;;31.78;29.89;99531.56;8387406;28;20070;-72
2022/07/20 17:52:42;;;;;;;10.68;4.40;;;;;;;31.58;30.32;99533.72;8414571;28;20036;-73
2022/07/20 17:56:43;;;;;;;7.35;4.70;;;;;;;31.34;30.82;99531.13;8416813;28;20628;-71
2022/07/20 18:00:44;;;;;;;10.50;4.80;;;;;;;31.15;31.06;99528.44;8420765;28;20091;-72
2022/07/20 18:04:45;;;;;;;9.30;5.47;;;;;;;30.94;31.68;99529.72;8426575;28;20044;-72
2022/07/20 18:08:46;;;;;;;11.45;4.82;;;;;;;30.73;32.28;99533.03;8422914;28;20514;-71
2022/07/20 18:12:47;;;;;;;7.50;4.65;;;;;;;30.51;33.00;99536.31;8423651;28;20127;-72
2022/07/20 18:16:48;;;;;;;9.98;4.70;;;;;;;30.26;33.66;99536.06;8416602;28;20482;-72
2022/07/20 18:20:50;;;;;;;18.73;5.20;;;;;;;29.97;34.64;99535.09;8361026;28;20054;-72
2022/07/20 18:24:50;;;;;;;12.98;4.82;;;;;;;29.72;35.11;99528.00;8415979;28;20053;-72
2022/07/20 18:28:51;;;;;;;13.23;5.60;;;;;;;29.45;35.63;99521.78;8409884;28;20436;-72
2022/07/20 18:32:52;;;;;;;10.45;4.70;;;;;;;29.21;35.89;99522.97;8411988;28;20048;-72
2022/07/20 18:36:54;;;;;;;7.78;4.70;;;;;;;28.99;36.20;99525.31;8415772;28;20044;-72
2022/07/20 18:40:55;;;;;;;10.55;4.95;;;;;;;28.79;36.39;99524.47;8412790;28;20581;-72
2022/07/20 18:44:56;;;;;;;9.40;5.10;;;;;;;28.62;36.18;99526.28;8414529;28;20164;-73
2022/07/20 18:48:57;;;;;;;12.57;4.78;;;;;;;28.45;36.22;99519.00;8421248;28;20110;-73
2022/07/20 18:52:58;;;;;;;11.63;5.43;;;;;;;28.22;37.90;99524.50;8420489;28;20049;-72
2022/07/20 18:56:59;;;;;;;9.98;5.05;;;;;;;28.08;38.77;99534.53;8402065;28;20139;-72
2022/07/20 19:01:00;;;;;;;9.02;5.15;;;;;;;27.99;38.48;99533.47;8383345;28;20052;-73
2022/07/20 19:05:01;;;;;;;8.15;4.85;;;;;;;27.90;38.72;99535.97;8408619;28;20399;-73
2022/07/20 19:09:02;;;;;;;11.43;5.05;;;;;;;27.75;37.90;99529.81;8375916;28;20119;-73
2022/07/20 19:13:05;;;;;;;13.10;5.88;;;;;;;27.69;37.43;99528.69;8414008;28;20044;-73
2022/07/20 19:17:06;;;;;;;7.80;4.70;;;;;;;27.69;37.23;99531.47;8397369;28;20522;-73